createdAt,value
2023-05-09T00:00:42.998Z,0.2
2023-05-09T00:05:18.366Z,0.2
2023-05-09T00:10:17.779Z,0.2
2023-05-09T00:15:18.121Z,0.2
2023-05-09T00:20:17.286Z,0.2
2023-05-09T00:25:18.311Z,0.2
2023-05-09T00:30:14.901Z,0.2
2023-05-09T00:35:14.909Z,0.2
2023-05-09T00:40:14.010Z,0.2
2023-05-09T00:45:14.229Z,0.2
2023-05-09T00:50:12.350Z,0.2
2023-05-09T00:55:12.238Z,0.2
2023-05-09T01:59:33.386Z,0.2
2023-05-09T02:04:33.818Z,0.2
2023-05-09T02:09:31.849Z,0.2
2023-05-09T02:14:32.986Z,0.2
2023-05-09T02:19:32.476Z,0.2
2023-05-09T02:24:20.880Z,0.2
2023-05-09T02:29:20.868Z,0.2
2023-05-09T02:34:20.588Z,0.2
2023-05-09T02:39:20.413Z,0.2
2023-05-09T02:44:18.116Z,0.2
2023-05-09T02:49:31.313Z,0.2
2023-05-09T02:54:16.613Z,0.2
2023-05-09T02:59:16.041Z,0.2
2023-05-09T03:04:15.842Z,0.2
2023-05-09T03:09:15.139Z,0.2
2023-05-09T03:14:15.542Z,0.3
2023-05-09T03:19:14.919Z,0.3
2023-05-09T03:24:12.690Z,0.3
2023-05-09T03:29:12.146Z,0.3
2023-05-09T03:34:12.486Z,0.4
2023-05-09T03:39:12.397Z,0.7
2023-05-09T03:44:11.446Z,1.4
2023-05-09T03:49:10.675Z,2.1
2023-05-09T03:54:11.185Z,2.8
2023-05-09T03:59:10.229Z,3.3
2023-05-09T04:00:56.614Z,3.4
2023-05-09T04:05:31.285Z,3.8
2023-05-09T04:10:30.893Z,5.2
2023-05-09T04:15:30.345Z,5.6
2023-05-09T04:20:29.585Z,6.6
2023-05-09T04:25:29.257Z,6.5
2023-05-09T04:30:29.700Z,6.3
2023-05-09T04:35:31.147Z,7.2
2023-05-09T04:40:30.038Z,9.4
2023-05-09T04:50:36.375Z,9.8
2023-05-09T04:55:37.138Z,11.9
2023-05-09T06:04:35.512Z,62.3
2023-05-09T06:09:32.563Z,47.4
2023-05-09T06:14:31.853Z,50
2023-05-09T06:19:31.884Z,47.7
2023-05-09T06:24:55.930Z,44.6
2023-05-09T06:29:19.476Z,43.1
2023-05-09T06:34:19.300Z,50.3
2023-05-09T06:39:19.000Z,60.5
2023-05-09T06:44:18.684Z,77.9
2023-05-09T06:49:18.048Z,59.6
2023-05-09T06:54:18.190Z,102.3
2023-05-09T06:59:18.173Z,83.4
2023-05-09T07:09:15.336Z,96.1
2023-05-09T07:14:15.591Z,124.6
2023-05-09T07:24:15.379Z,159.8
2023-05-09T07:49:13.165Z,100.4
2023-05-09T07:54:12.677Z,92.4
2023-05-09T08:04:12.452Z,91.1
2023-05-09T08:19:08.240Z,274.3
2023-05-09T08:24:07.697Z,292.3
2023-05-09T08:34:07.264Z,361.9
2023-05-09T08:39:07.435Z,265.9
2023-05-09T08:54:04.960Z,260.3
2023-05-09T09:00:53.067Z,245.7
2023-05-09T09:05:55.625Z,278.6
2023-05-09T09:10:35.762Z,278
2023-05-09T09:15:35.351Z,270.3
2023-05-09T09:20:34.556Z,227.5
2023-05-09T09:25:34.245Z,270.8
2023-05-09T09:30:34.862Z,240.6
2023-05-09T09:35:35.697Z,263.1
2023-05-09T09:40:32.854Z,249.8
2023-05-09T09:45:32.424Z,240.4
2023-05-09T09:50:34.698Z,267.4
2023-05-09T09:55:20.575Z,356.4
2023-05-09T10:24:38.232Z,476.3
2023-05-09T10:34:35.774Z,141.6
2023-05-09T10:44:34.668Z,116.4
2023-05-09T10:49:36.879Z,124.9
2023-05-09T10:55:16.276Z,128.6
2023-05-09T10:59:34.807Z,152.2
2023-05-09T11:04:35.933Z,176.4
2023-05-09T11:09:34.263Z,187.7
2023-05-09T11:14:34.532Z,183.5
2023-05-09T11:19:34.168Z,156.8
2023-05-09T11:24:35.923Z,118.5
2023-05-09T11:29:32.944Z,109.9
2023-05-09T11:34:32.590Z,111.1
2023-05-09T11:39:34.324Z,96
2023-05-09T11:44:20.698Z,98.3
2023-05-09T11:49:23.048Z,125.5
2023-05-09T11:54:19.987Z,149.7
2023-05-09T11:59:19.695Z,172.8
2023-05-09T12:34:13.984Z,215
2023-05-09T14:00:54.488Z,139
2023-05-09T14:05:33.889Z,168.9
2023-05-09T14:10:36.618Z,199.3
2023-05-09T14:15:35.996Z,250.4
2023-05-09T14:20:33.985Z,249.7
2023-05-09T14:25:20.880Z,225.5
2023-05-09T14:30:20.666Z,210
2023-05-09T14:35:21.774Z,208.8
2023-05-09T14:40:18.370Z,198.5
2023-05-09T14:45:18.284Z,175.4
2023-05-09T14:50:17.924Z,159.5
2023-05-09T14:55:17.827Z,151.6
2023-05-09T15:04:34.622Z,141
2023-05-09T15:09:34.245Z,130.3
2023-05-09T15:14:33.215Z,124.8
2023-05-09T15:19:36.315Z,121.8
2023-05-09T15:29:31.505Z,121
2023-05-09T15:34:32.245Z,112.1
2023-05-09T15:39:31.855Z,101.1
2023-05-09T15:44:20.408Z,94.4
2023-05-09T15:49:20.170Z,88.1
2023-05-09T15:54:20.060Z,86.3
2023-05-09T15:59:19.268Z,86
2023-05-09T16:04:20.921Z,82.6
2023-05-09T16:09:16.869Z,71.1
2023-05-09T16:14:16.856Z,58.4
2023-05-09T16:19:16.544Z,54
2023-05-09T16:24:16.112Z,52.8
2023-05-09T16:29:13.526Z,47.9
2023-05-09T16:34:13.253Z,44.8
2023-05-09T16:39:12.744Z,39
2023-05-09T16:44:11.973Z,35
2023-05-09T16:49:11.305Z,33
2023-05-09T16:54:10.535Z,32.4
2023-05-09T16:59:10.608Z,30.6
2023-05-09T17:04:10.081Z,25.5
2023-05-09T17:09:07.846Z,23
2023-05-09T17:14:07.570Z,11.9
2023-05-09T17:34:05.969Z,12.2
2023-05-09T17:54:02.741Z,7.7
2023-05-09T17:59:02.641Z,7.7
2023-05-09T18:00:50.614Z,7.9
2023-05-09T18:05:37.332Z,7.9
2023-05-09T18:10:32.520Z,5.6
2023-05-09T18:15:32.261Z,7
2023-05-09T18:20:34.351Z,4.8
2023-05-09T18:25:20.040Z,4.3
2023-05-09T18:30:20.076Z,3.7
2023-05-09T18:35:19.069Z,2.8
2023-05-09T18:40:19.070Z,2
2023-05-09T18:45:16.982Z,1.4
2023-05-09T18:50:16.929Z,1
2023-05-09T18:55:16.831Z,0.8
2023-05-09T19:04:40.520Z,0.5
2023-05-09T19:09:39.769Z,0.4
2023-05-09T19:14:39.449Z,0.3
2023-05-09T19:19:38.990Z,0.3
2023-05-09T19:24:36.829Z,0.3
2023-05-09T19:29:36.408Z,0.2
2023-05-09T19:34:37.094Z,0.3
2023-05-09T19:39:38.144Z,0.2
2023-05-09T19:44:34.424Z,0.2
2023-05-09T19:49:34.164Z,0.2
2023-05-09T19:54:33.675Z,0.3
2023-05-09T22:00:51.931Z,0.2
2023-05-09T22:05:37.432Z,0.2
2023-05-09T22:10:37.735Z,0.2
2023-05-09T22:15:37.975Z,0.2
2023-05-09T22:20:35.421Z,0.2
2023-05-09T22:25:34.597Z,0.2
2023-05-09T22:30:36.833Z,0.2
2023-05-09T22:35:33.387Z,0.2
2023-05-09T22:40:32.666Z,0.2
2023-05-09T22:45:32.952Z,0.2
2023-05-09T22:50:20.341Z,0.2
2023-05-09T22:55:19.975Z,0.2
2023-05-09T22:59:37.756Z,0.2
2023-05-09T23:04:27.760Z,0.2
2023-05-09T23:09:35.750Z,0.2
2023-05-09T23:14:36.487Z,0.2
2023-05-09T23:19:36.636Z,0.2
2023-05-09T23:24:35.128Z,0.2
2023-05-09T23:29:35.461Z,0.2
2023-05-09T23:34:36.262Z,0.2
2023-05-09T23:39:33.801Z,0.2
2023-05-09T23:44:33.305Z,0.2
2023-05-09T23:49:33.776Z,0.2
2023-05-09T23:54:32.301Z,0.2
2023-05-09T23:59:32.538Z,0.2
